Time;durP1;ratioP1;P1;durP2;ratioP2;P2;SDS_P1;SDS_P2;PMS_P1;PMS_P2;Temp;Humidity;BMP_temperature;BMP_pressure;BME280_temperature;BME280_humidity;BME280_pressure;Samples;Min_cycle;Max_cycle;Signal;HPM_P1;HPM_P2
2023/12/24 00:00:25;;;;;;;0.50;0.50;;;;;;;7.02;86.75;96678.63;29395;197;63005;-55
2023/12/24 00:00:56;;;;;;;0.57;0.57;;;;;;;7.04;86.45;96679.16;29395;197;63009;-55
2023/12/24 00:01:27;;;;;;;0.50;0.50;;;;;;;7.00;86.59;96681.59;29394;220;64009;-54
2023/12/24 00:01:59;;;;;;;0.50;0.50;;;;;;;6.99;86.65;96679.19;29394;245;64013;-54
2023/12/24 00:02:30;;;;;;;0.60;0.60;;;;;;;6.95;86.85;96683.50;29394;202;64009;-54
2023/12/24 00:03:01;;;;;;;0.50;0.50;;;;;;;6.92;87.30;96681.38;29394;252;64013;-54
2023/12/24 00:03:37;;;;;;;0.50;0.50;;;;;;;6.89;87.30;96684.63;29395;384;63012;-54
2023/12/24 00:04:09;;;;;;;0.60;0.60;;;;;;;6.92;87.38;96689.47;29395;213;63009;-54
2023/12/24 00:04:42;;;;;;;0.50;0.50;;;;;;;6.93;87.14;96691.09;29395;210;63004;-57
2023/12/24 00:05:13;;;;;;;0.60;0.60;;;;;;;6.93;87.09;96691.88;29395;271;63008;-54
2023/12/24 00:05:44;;;;;;;0.60;0.60;;;;;;;6.98;86.51;96694.56;29395;213;63005;-55
2023/12/24 00:06:16;;;;;;;0.60;0.60;;;;;;;7.04;86.09;96687.25;29395;210;63009;-55
2023/12/24 00:06:47;;;;;;;0.57;0.57;;;;;;;7.04;86.15;96698.88;29395;262;63005;-54
2023/12/24 00:07:18;;;;;;;0.73;0.73;;;;;;;7.08;86.04;96693.72;29394;210;64013;-54
2023/12/24 00:07:52;;;;;;;0.55;0.55;;;;;;;7.06;86.09;96691.31;29395;233;63005;-54
2023/12/24 00:08:24;;;;;;;0.50;0.50;;;;;;;7.03;86.22;96688.34;29395;222;63009;-55
2023/12/24 00:08:56;;;;;;;0.50;0.50;;;;;;;6.98;86.41;96685.66;29395;245;63005;-55
2023/12/24 00:09:29;;;;;;;0.50;0.50;;;;;;;7.05;85.79;96694.28;29395;268;63018;-56
2023/12/24 00:10:00;;;;;;;0.50;0.50;;;;;;;7.03;86.07;96697.25;29395;249;63004;-55
2023/12/24 00:10:31;;;;;;;0.60;0.60;;;;;;;7.01;86.21;96698.59;29395;254;63009;-53
2023/12/24 00:11:03;;;;;;;0.50;0.50;;;;;;;7.04;86.25;96698.06;29395;269;63004;-53
2023/12/24 00:11:35;;;;;;;0.50;0.50;;;;;;;7.06;85.86;96690.50;29394;205;64009;-55
2023/12/24 00:12:07;;;;;;;0.50;0.50;;;;;;;7.09;86.16;96684.56;29394;206;64008;-54
2023/12/24 00:12:38;;;;;;;0.50;0.50;;;;;;;7.04;86.00;96688.06;29395;224;63008;-54
2023/12/24 00:13:12;;;;;;;0.50;0.50;;;;;;;6.99;86.45;96689.97;29395;213;63005;-54
2023/12/24 00:13:44;;;;;;;0.50;0.50;;;;;;;7.03;86.32;96686.47;29395;247;63009;-54
2023/12/24 00:14:19;;;;;;;0.50;0.50;;;;;;;7.02;86.21;96681.34;29395;222;63005;-53
2023/12/24 00:14:50;;;;;;;0.50;0.50;;;;;;;7.00;86.34;96675.41;29395;270;63013;-54
2023/12/24 00:15:21;;;;;;;0.50;0.50;;;;;;;6.96;86.55;96680.53;29395;276;63005;-54
2023/12/24 00:15:53;;;;;;;0.50;0.50;;;;;;;6.94;86.66;96684.59;29395;247;63009;-55
2023/12/24 00:16:28;;;;;;;0.50;0.50;;;;;;;6.93;86.93;96685.69;29395;198;63005;-57
2023/12/24 00:16:59;;;;;;;0.50;0.50;;;;;;;6.93;86.57;96683.00;29395;279;63014;-53
2023/12/24 00:17:31;;;;;;;0.52;0.52;;;;;;;6.92;86.91;96684.09;29394;236;64009;-54
2023/12/24 00:18:03;;;;;;;0.50;0.50;;;;;;;6.92;86.89;96676.00;29395;203;63009;-60
2023/12/24 00:18:34;;;;;;;0.50;0.50;;;;;;;6.95;86.61;96673.53;29395;197;63000;-55
2023/12/24 00:19:05;;;;;;;0.50;0.50;;;;;;;7.05;85.79;96668.09;29395;242;63009;-54
2023/12/24 00:19:36;;;;;;;0.50;0.50;;;;;;;7.04;85.89;96673.78;29395;206;63004;-54
2023/12/24 00:20:08;;;;;;;0.50;0.50;;;;;;;7.01;85.95;96677.84;29395;205;63008;-53
2023/12/24 00:20:43;;;;;;;0.50;0.50;;;;;;;6.98;86.42;96670.28;29395;207;63005;-55
2023/12/24 00:21:14;;;;;;;0.60;0.60;;;;;;;6.97;86.63;96681.34;29395;234;63017;-54
2023/12/24 00:21:46;;;;;;;0.50;0.50;;;;;;;6.97;86.30;96665.97;29395;227;63005;-57
2023/12/24 00:22:17;;;;;;;0.50;0.50;;;;;;;6.98;86.03;96669.47;29395;234;63018;-57
2023/12/24 00:23:07;;;;;;;0.60;0.60;;;;;;;6.96;86.25;96671.63;29394;219;64009;-54
2023/12/24 00:23:39;;;;;;;0.60;0.60;;;;;;;6.94;86.43;96676.50;29395;216;63009;-57
2023/12/24 00:24:10;;;;;;;0.60;0.60;;;;;;;6.94;86.55;96674.59;29394;198;64009;-57
2023/12/24 00:24:43;;;;;;;0.50;0.50;;;;;;;6.96;86.05;96668.94;29395;206;63009;-54
2023/12/24 00:25:15;;;;;;;0.50;0.50;;;;;;;6.99;86.24;96669.19;29394;269;64009;-54
2023/12/24 00:25:46;;;;;;;0.50;0.50;;;;;;;6.96;86.78;96666.25;29395;234;63009;-55
2023/12/24 00:26:19;;;;;;;0.50;0.50;;;;;;;6.93;86.69;96669.53;29395;256;63004;-55
2023/12/24 00:26:51;;;;;;;0.50;0.50;;;;;;;6.91;86.76;96660.91;29394;226;64013;-57
2023/12/24 00:27:22;;;;;;;2.22;2.15;;;;;;;6.92;86.70;96662.50;29395;271;63004;-54
2023/12/24 00:27:53;;;;;;;0.55;0.55;;;;;;;6.90;86.39;96654.69;29395;220;63008;-54
2023/12/24 00:28:28;;;;;;;0.50;0.50;;;;;;;6.89;86.71;96657.66;29395;232;63017;-54
2023/12/24 00:28:59;;;;;;;0.50;0.50;;;;;;;6.87;86.87;96659.81;29394;214;64014;-54
2023/12/24 00:29:34;;;;;;;0.50;0.50;;;;;;;6.84;86.99;96654.97;29395;199;63005;-54
2023/12/24 00:30:07;;;;;;;0.57;0.57;;;;;;;6.82;87.36;96654.44;29395;275;63009;-54
2023/12/24 00:30:38;;;;;;;0.55;0.55;;;;;;;6.80;87.66;96664.69;29395;202;63018;-54
2023/12/24 00:31:11;;;;;;;0.60;0.60;;;;;;;6.83;87.35;96653.34;29395;219;63009;-56
2023/12/24 00:31:42;;;;;;;0.50;0.50;;;;;;;6.87;87.58;96654.44;29395;286;63004;-55
2023/12/24 00:32:15;;;;;;;0.60;0.60;;;;;;;6.88;87.31;96661.44;29395;226;63009;-54
2023/12/24 00:32:48;;;;;;;0.55;0.55;;;;;;;6.85;87.07;96651.19;29395;273;63004;-54
2023/12/24 00:33:19;;;;;;;0.60;0.60;;;;;;;6.82;87.15;96660.66;29395;199;63009;-56
2023/12/24 00:33:50;;;;;;;0.50;0.50;;;;;;;6.81;87.42;96655.53;29395;199;63004;-55
2023/12/24 00:34:22;;;;;;;0.60;0.60;;;;;;;6.83;87.41;96664.16;29394;199;64013;-64
2023/12/24 00:34:54;;;;;;;0.50;0.50;;;;;;;6.84;87.44;96660.38;29395;226;63004;-57
2023/12/24 00:35:27;;;;;;;0.50;0.50;;;;;;;6.89;86.60;96657.66;29395;239;63008;-54
2023/12/24 00:36:02;;;;;;;0.50;0.50;;;;;;;6.88;86.67;96651.47;29395;270;63009;-54
2023/12/24 00:36:33;;;;;;;0.50;0.50;;;;;;;6.86;86.71;96644.72;29395;222;63009;-54
2023/12/24 00:37:04;;;;;;;0.60;0.60;;;;;;;6.84;87.31;96660.38;29395;246;63007;-62
2023/12/24 00:37:35;;;;;;;0.60;0.60;;;;;;;6.83;86.92;96653.34;29395;209;63009;-55
2023/12/24 00:38:07;;;;;;;0.50;0.50;;;;;;;6.82;87.15;96657.13;29395;247;63005;-56
2023/12/24 00:38:38;;;;;;;0.50;0.50;;;;;;;6.82;87.05;96657.13;29395;230;63009;-54
2023/12/24 00:39:10;;;;;;;0.50;0.50;;;;;;;6.85;86.91;96659.28;29395;204;63004;-56
2023/12/24 00:39:41;;;;;;;0.50;0.50;;;;;;;6.85;86.43;96648.50;29394;214;64013;-54
2023/12/24 00:40:13;;;;;;;0.50;0.50;;;;;;;6.84;86.65;96665.75;29395;196;63004;-59
2023/12/24 00:40:45;;;;;;;0.50;0.50;;;;;;;6.92;85.89;96651.72;29395;204;63009;-54
2023/12/24 00:41:17;;;;;;;0.60;0.60;;;;;;;6.97;85.76;96665.16;29395;210;63004;-56
2023/12/24 00:41:48;;;;;;;0.50;0.50;;;;;;;6.99;85.46;96660.31;29395;227;63008;-56
2023/12/24 00:42:21;;;;;;;0.50;0.50;;;;;;;6.98;85.58;96661.38;29395;203;63005;-54
2023/12/24 00:42:52;;;;;;;0.50;0.50;;;;;;;6.96;85.35;96658.16;29395;268;63009;-55
2023/12/24 00:43:24;;;;;;;0.50;0.50;;;;;;;6.92;85.91;96671.41;29395;216;63005;-54
2023/12/24 00:43:57;;;;;;;0.50;0.50;;;;;;;6.92;85.76;96654.41;29395;229;63009;-62
2023/12/24 00:44:28;;;;;;;0.50;0.50;;;;;;;6.87;85.85;96655.25;29395;226;63005;-54
2023/12/24 00:44:59;;;;;;;0.55;0.55;;;;;;;6.84;86.20;96665.75;29394;199;64013;-62
2023/12/24 00:45:31;;;;;;;0.50;0.50;;;;;;;6.82;86.54;96659.84;29395;219;63005;-54
2023/12/24 00:46:03;;;;;;;0.60;0.60;;;;;;;6.80;86.65;96659.31;29395;228;63019;-54
2023/12/24 00:46:34;;;;;;;0.60;0.60;;;;;;;6.82;86.69;96657.13;29394;211;64004;-57
2023/12/24 00:47:05;;;;;;;0.55;0.55;;;;;;;6.84;86.29;96655.78;29395;228;63009;-55
2023/12/24 00:47:38;;;;;;;0.50;0.50;;;;;;;6.89;85.95;96660.34;29395;210;63004;-57
2023/12/24 00:48:10;;;;;;;0.50;0.50;;;;;;;6.95;85.59;96651.12;29395;224;63009;-53
2023/12/24 00:48:42;;;;;;;0.50;0.50;;;;;;;6.91;85.45;96650.91;29395;203;63004;-54
2023/12/24 00:49:13;;;;;;;0.50;0.50;;;;;;;7.00;85.11;96649.25;29395;210;63008;-55
2023/12/24 00:49:45;;;;;;;0.50;0.50;;;;;;;6.97;84.99;96649.78;29395;236;63004;-54
2023/12/24 00:50:16;;;;;;;0.50;0.50;;;;;;;6.95;85.09;96651.12;29394;219;64014;-55
2023/12/24 00:50:47;;;;;;;0.50;0.50;;;;;;;6.97;85.21;96643.59;29395;269;63005;-56
2023/12/24 00:51:18;;;;;;;0.50;0.50;;;;;;;6.95;84.99;96645.75;29395;259;63009;-57
2023/12/24 00:51:53;;;;;;;0.50;0.50;;;;;;;7.01;84.49;96644.66;29395;242;63014;-54
2023/12/24 00:52:24;;;;;;;0.50;0.50;;;;;;;6.98;84.36;96645.19;29395;230;63009;-56
2023/12/24 00:52:55;;;;;;;0.50;0.50;;;;;;;6.96;84.82;96647.37;29395;204;63008;-56
2023/12/24 00:53:26;;;;;;;0.60;0.60;;;;;;;6.94;84.75;96638.72;29395;218;63009;-55
2023/12/24 00:53:59;;;;;;;0.60;0.60;;;;;;;6.93;85.04;96645.25;29395;212;63005;-56
2023/12/24 00:54:30;;;;;;;0.50;0.50;;;;;;;6.88;85.31;96634.47;29395;263;63009;-54
2023/12/24 00:55:02;;;;;;;0.50;0.50;;;;;;;6.88;85.60;96642.56;29395;229;63004;-54
2023/12/24 00:55:34;;;;;;;0.60;0.60;;;;;;;6.87;85.78;96644.44;29394;228;64013;-55
2023/12/24 00:56:06;;;;;;;0.60;0.60;;;;;;;6.88;85.83;96631.78;29395;274;63004;-54
2023/12/24 00:56:37;;;;;;;0.60;0.60;;;;;;;6.95;84.80;96634.97;29395;205;63008;-58
2023/12/24 00:57:09;;;;;;;0.50;0.50;;;;;;;7.00;84.49;96637.63;29395;199;63004;-54
2023/12/24 00:57:40;;;;;;;0.60;0.60;;;;;;;7.04;84.15;96627.91;29395;206;63009;-56
2023/12/24 00:58:12;;;;;;;0.60;0.60;;;;;;;7.03;84.36;96631.69;29395;214;63005;-55
2023/12/24 00:58:43;;;;;;;0.60;0.60;;;;;;;7.00;84.14;96638.44;29395;207;63009;-54
2023/12/24 00:59:14;;;;;;;0.60;0.60;;;;;;;6.96;84.45;96632.00;29395;219;63005;-54
2023/12/24 00:59:45;;;;;;;0.57;0.57;;;;;;;6.92;84.68;96630.16;29395;207;63009;-54
2023/12/24 01:00:17;;;;;;;0.50;0.50;;;;;;;6.88;85.04;96634.47;29395;214;63011;-55
2023/12/24 01:00:48;;;;;;;0.50;0.50;;;;;;;6.84;85.37;96641.50;29394;215;64013;-55
2023/12/24 01:01:20;;;;;;;0.50;0.50;;;;;;;6.83;85.64;96642.56;29395;218;63005;-54
2023/12/24 01:01:51;;;;;;;0.50;0.50;;;;;;;6.80;85.80;96627.75;29395;209;63009;-65
2023/12/24 01:02:22;;;;;;;0.60;0.60;;;;;;;6.79;86.15;96642.31;29395;234;63004;-54
2023/12/24 01:02:53;;;;;;;0.50;0.50;;;;;;;6.85;85.61;96635.03;29394;213;64013;-55
2023/12/24 01:03:24;;;;;;;0.50;0.50;;;;;;;6.88;85.58;96629.06;29395;199;63004;-54
2023/12/24 01:03:56;;;;;;;0.50;0.50;;;;;;;6.90;85.28;96633.13;29395;211;63009;-55
2023/12/24 01:04:27;;;;;;;0.50;0.50;;;;;;;6.90;84.92;96632.31;29395;197;63010;-57
2023/12/24 01:04:58;;;;;;;0.50;0.50;;;;;;;6.90;85.09;96633.13;29395;218;63009;-53
2023/12/24 01:05:29;;;;;;;0.60;0.60;;;;;;;6.87;85.17;96632.84;29395;225;63005;-54
2023/12/24 01:06:00;;;;;;;0.50;0.50;;;;;;;6.87;85.20;96632.84;29395;246;63009;-55
2023/12/24 01:06:31;;;;;;;0.60;0.60;;;;;;;6.86;85.51;96636.62;29395;214;63005;-54
2023/12/24 01:07:03;;;;;;;0.50;0.50;;;;;;;6.87;85.12;96628.28;29395;215;63009;-55
2023/12/24 01:07:34;;;;;;;0.50;0.50;;;;;;;6.86;85.35;96629.34;29395;238;63005;-55
2023/12/24 01:08:06;;;;;;;0.50;0.50;;;;;;;6.84;85.33;96644.19;29394;213;64013;-54
2023/12/24 01:08:38;;;;;;;0.50;0.50;;;;;;;6.93;84.81;96632.53;29395;204;63005;-57
2023/12/24 01:09:09;;;;;;;0.50;0.50;;;;;;;6.95;84.57;96630.38;29395;202;63009;-55
2023/12/24 01:09:40;;;;;;;0.60;0.60;;;;;;;6.93;84.59;96627.13;29395;203;63004;-65
2023/12/24 01:10:12;;;;;;;0.50;0.50;;;;;;;6.94;84.49;96628.75;29395;249;63009;-55
2023/12/24 01:10:43;;;;;;;0.50;0.50;;;;;;;6.93;84.55;96626.38;29395;296;63004;-57
2023/12/24 01:11:14;;;;;;;0.50;0.50;;;;;;;6.99;84.00;96631.44;29395;230;63009;-55
2023/12/24 01:11:45;;;;;;;0.50;0.50;;;;;;;6.99;84.23;96630.63;29395;243;63004;-54
2023/12/24 01:12:17;;;;;;;0.50;0.50;;;;;;;6.97;84.26;96640.88;29395;225;63008;-63
2023/12/24 01:12:48;;;;;;;0.52;0.52;;;;;;;6.96;84.25;96641.97;29395;270;63005;-65
2023/12/24 01:13:19;;;;;;;0.60;0.60;;;;;;;6.93;84.75;96642.53;29394;230;64014;-54
2023/12/24 01:13:50;;;;;;;0.55;0.55;;;;;;;6.91;85.03;96644.72;29395;199;63005;-54
2023/12/24 01:14:21;;;;;;;0.50;0.50;;;;;;;6.87;85.09;96651.72;29395;239;63009;-55
2023/12/24 01:14:53;;;;;;;0.60;0.60;;;;;;;6.88;85.02;96637.16;29395;238;63005;-55
2023/12/24 01:15:24;;;;;;;0.60;0.60;;;;;;;6.86;85.13;96633.94;29395;214;63009;-55
2023/12/24 01:15:55;;;;;;;0.50;0.50;;;;;;;6.84;85.29;96644.19;29395;253;63005;-65
2023/12/24 01:16:28;;;;;;;0.50;0.50;;;;;;;6.87;85.09;96641.75;29394;245;64013;-65
2023/12/24 01:17:00;;;;;;;0.57;0.57;;;;;;;6.88;84.89;96645.25;29395;216;63004;-57
2023/12/24 01:17:31;;;;;;;0.60;0.60;;;;;;;6.87;84.99;96654.44;29395;204;63009;-57
2023/12/24 01:18:03;;;;;;;0.50;0.50;;;;;;;6.85;85.05;96643.09;29394;242;64009;-54
2023/12/24 01:18:34;;;;;;;0.50;0.50;;;;;;;6.84;85.23;96647.69;29395;210;63009;-55
2023/12/24 01:19:05;;;;;;;0.60;0.60;;;;;;;6.82;85.23;96657.13;29395;196;63004;-56
2023/12/24 01:19:37;;;;;;;0.60;0.60;;;;;;;6.80;85.06;96646.63;29395;206;63008;-54
2023/12/24 01:20:18;;;;;;;0.50;0.50;;;;;;;6.79;85.47;96646.91;29395;333;63010;-54
2023/12/24 01:20:50;;;;;;;0.60;0.60;;;;;;;6.79;85.53;96653.09;29395;212;63009;-57
2023/12/24 01:21:22;;;;;;;0.50;0.50;;;;;;;6.88;85.07;96648.75;29395;245;63005;-55
2023/12/24 01:21:56;;;;;;;0.50;0.50;;;;;;;6.88;84.98;96662.25;29395;231;63009;-56
2023/12/24 01:22:27;;;;;;;0.50;0.50;;;;;;;6.91;85.05;96658.19;29395;265;63005;-56
2023/12/24 01:22:58;;;;;;;0.50;0.50;;;;;;;6.93;84.52;96653.34;29395;226;63009;-57
2023/12/24 01:23:30;;;;;;;0.50;0.50;;;;;;;6.95;84.83;96648.44;29394;198;64009;-59
2023/12/24 01:24:01;;;;;;;0.50;0.50;;;;;;;6.98;84.25;96653.28;29394;197;64013;-55
2023/12/24 01:24:32;;;;;;;0.60;0.60;;;;;;;6.95;84.39;96651.94;29395;199;63004;-56
2023/12/24 01:25:04;;;;;;;0.50;0.50;;;;;;;6.92;84.45;96651.72;29395;243;63009;-55
2023/12/24 01:25:35;;;;;;;0.60;0.60;;;;;;;6.92;84.71;96651.72;29395;222;63004;-64
2023/12/24 01:26:07;;;;;;;0.50;0.50;;;;;;;6.88;84.73;96653.34;29395;249;63008;-55
2023/12/24 01:26:39;;;;;;;0.50;0.50;;;;;;;6.92;84.95;96657.13;29395;213;63004;-58
2023/12/24 01:27:11;;;;;;;0.50;0.50;;;;;;;6.94;84.60;96665.72;29395;248;63008;-55
2023/12/24 01:27:43;;;;;;;0.50;0.50;;;;;;;6.94;84.56;96660.31;29395;229;63007;-58
2023/12/24 01:28:14;;;;;;;0.50;0.50;;;;;;;6.98;84.19;96666.78;29395;227;63009;-55
2023/12/24 01:28:46;;;;;;;0.60;0.60;;;;;;;6.99;84.35;96638.72;29395;207;63005;-56
2023/12/24 01:29:17;;;;;;;0.60;0.60;;;;;;;7.00;84.16;96651.94;29394;206;64013;-55
2023/12/24 01:29:49;;;;;;;0.60;0.60;;;;;;;6.98;84.36;96656.78;29394;218;64009;-62
2023/12/24 01:30:21;;;;;;;0.50;0.50;;;;;;;6.97;84.30;96659.78;29395;202;63009;-54
2023/12/24 01:30:52;;;;;;;0.60;0.60;;;;;;;6.96;84.60;96679.72;29395;213;63005;-56
2023/12/24 01:31:23;;;;;;;0.50;0.50;;;;;;;7.03;84.01;96666.75;29395;200;63009;-54
2023/12/24 01:31:57;;;;;;;0.50;0.50;;;;;;;7.06;84.13;96666.22;29395;199;63004;-54
2023/12/24 01:32:28;;;;;;;0.60;0.60;;;;;;;7.00;84.59;96651.94;29395;203;63009;-54
2023/12/24 01:33:00;;;;;;;0.50;0.50;;;;;;;6.96;84.54;96658.97;29395;228;63004;-56
2023/12/24 01:33:31;;;;;;;0.60;0.60;;;;;;;6.98;84.45;96650.59;29395;242;63008;-63
2023/12/24 01:34:03;;;;;;;0.60;0.60;;;;;;;6.97;84.51;96657.06;29395;242;63004;-57
2023/12/24 01:34:34;;;;;;;0.50;0.50;;;;;;;6.95;84.39;96670.03;29395;222;63009;-59
2023/12/24 01:35:06;;;;;;;0.50;0.50;;;;;;;7.00;84.29;96659.22;29394;221;64009;-56
2023/12/24 01:35:37;;;;;;;0.50;0.50;;;;;;;6.95;84.53;96662.75;29395;218;63009;-57
2023/12/24 01:36:09;;;;;;;0.50;0.50;;;;;;;6.93;84.81;96653.34;29395;230;63005;-56
2023/12/24 01:36:41;;;;;;;0.60;0.60;;;;;;;6.93;84.89;96658.72;29395;248;63009;-55
2023/12/24 01:37:12;;;;;;;0.60;0.60;;;;;;;6.92;84.72;96657.91;29395;207;63005;-56
2023/12/24 01:37:43;;;;;;;0.60;0.60;;;;;;;6.92;84.65;96662.50;29395;224;63009;-60
2023/12/24 01:38:14;;;;;;;0.50;0.50;;;;;;;6.97;84.65;96654.37;29394;255;64009;-55
2023/12/24 01:38:46;;;;;;;0.50;0.50;;;;;;;6.99;84.51;96663.81;29394;205;64013;-55
2023/12/24 01:39:20;;;;;;;0.50;0.50;;;;;;;6.99;84.42;96668.41;29395;219;63004;-56
2023/12/24 01:39:51;;;;;;;0.50;0.50;;;;;;;6.99;84.53;96671.91;29395;209;63009;-57
2023/12/24 01:40:23;;;;;;;0.55;0.55;;;;;;;6.98;84.28;96650.59;29395;204;63009;-57
2023/12/24 01:40:54;;;;;;;0.55;0.55;;;;;;;7.00;84.29;96664.63;29395;204;63009;-56
2023/12/24 01:41:25;;;;;;;0.50;0.50;;;;;;;7.00;84.40;96656.53;29395;212;63004;-55
2023/12/24 01:41:56;;;;;;;0.50;0.50;;;;;;;6.98;84.33;96659.50;29395;224;63009;-56
2023/12/24 01:42:27;;;;;;;0.50;0.50;;;;;;;7.02;84.29;96667.84;29395;225;63005;-57
2023/12/24 01:42:58;;;;;;;0.50;0.50;;;;;;;7.08;84.00;96666.75;29395;220;63009;-56
2023/12/24 01:43:30;;;;;;;0.50;0.50;;;;;;;7.14;83.36;96665.66;29395;231;63005;-57
2023/12/24 01:44:02;;;;;;;0.50;0.50;;;;;;;7.15;82.91;96661.88;29394;246;64013;-54
2023/12/24 01:44:33;;;;;;;0.60;0.60;;;;;;;7.16;82.70;96652.69;29395;213;63005;-56
2023/12/24 01:45:06;;;;;;;0.50;0.50;;;;;;;7.17;82.73;96648.91;29395;212;63009;-57
2023/12/24 01:45:37;;;;;;;0.50;0.50;;;;;;;7.15;82.95;96656.47;29395;218;63005;-56
2023/12/24 01:46:11;;;;;;;0.50;0.50;;;;;;;7.11;83.19;96649.22;29395;234;63009;-55
2023/12/24 01:46:43;;;;;;;0.50;0.50;;;;;;;7.07;83.28;96643.56;29395;248;63004;-62
2023/12/24 01:47:15;;;;;;;0.57;0.57;;;;;;;7.04;83.26;96655.69;29395;204;63009;-54
2023/12/24 01:47:49;;;;;;;4.18;1.40;;;;;;;7.11;83.16;96644.62;29395;202;63004;-57
2023/12/24 01:48:22;;;;;;;0.60;0.60;;;;;;;7.15;82.96;96645.69;29395;241;63025;-61
2023/12/24 01:48:55;;;;;;;0.60;0.60;;;;;;;7.14;82.98;96644.06;29395;202;63004;-54
2023/12/24 01:49:26;;;;;;;0.50;0.50;;;;;;;7.11;83.13;96633.81;29394;208;64014;-56
2023/12/24 01:49:58;;;;;;;0.50;0.50;;;;;;;7.09;83.26;96646.78;29395;203;63009;-67
2023/12/24 01:50:31;;;;;;;0.50;0.50;;;;;;;7.10;82.99;96631.41;29395;209;63009;-55
2023/12/24 01:51:04;;;;;;;0.50;0.50;;;;;;;7.09;83.21;96646.78;29395;237;63005;-57
2023/12/24 01:51:35;;;;;;;0.50;0.50;;;;;;;7.10;83.14;96626.81;29394;244;64009;-57
2023/12/24 01:52:06;;;;;;;0.60;0.60;;;;;;;7.14;82.58;96622.47;29395;211;63010;-55
2023/12/24 01:52:38;;;;;;;0.50;0.50;;;;;;;7.10;82.43;96624.13;29395;262;63009;-55
2023/12/24 01:53:10;;;;;;;0.50;0.50;;;;;;;7.06;82.95;96631.94;29395;361;63008;-55
2023/12/24 01:53:43;;;;;;;0.50;0.50;;;;;;;7.04;83.29;96634.13;29395;280;63009;-54
2023/12/24 01:54:14;;;;;;;0.60;0.60;;;;;;;7.03;83.38;96623.59;29395;200;63004;-55
2023/12/24 01:54:50;;;;;;;0.60;0.60;;;;;;;7.04;83.50;96652.19;29394;278;64013;-58
2023/12/24 01:55:21;;;;;;;0.50;0.50;;;;;;;7.06;83.16;96631.16;29395;282;63017;-55
2023/12/24 01:55:53;;;;;;;0.60;0.60;;;;;;;7.06;83.01;96623.06;29394;220;64013;-57
2023/12/24 01:56:25;;;;;;;0.50;0.50;;;;;;;7.06;82.82;96629.25;29395;215;63004;-56
2023/12/24 01:56:58;;;;;;;0.60;0.60;;;;;;;7.00;83.12;96618.75;29395;278;63009;-55
2023/12/24 01:57:31;;;;;;;0.50;0.50;;;;;;;7.02;83.09;96630.09;29395;208;63005;-58
2023/12/24 01:58:03;;;;;;;0.50;0.50;;;;;;;7.04;83.08;96622.53;29395;202;63016;-59
2023/12/24 01:58:34;;;;;;;0.60;0.60;;;;;;;7.01;83.11;96636.56;29395;198;63005;-56
2023/12/24 01:59:09;;;;;;;0.50;0.50;;;;;;;7.05;82.88;96640.31;29395;244;63009;-60
2023/12/24 01:59:41;;;;;;;0.50;0.50;;;;;;;7.13;82.29;96625.47;29395;243;63005;-55
2023/12/24 02:00:13;;;;;;;1.62;1.62;;;;;;;7.12;82.31;96635.44;29395;240;63026;-55
2023/12/24 02:00:47;;;;;;;0.50;0.50;;;;;;;7.07;82.54;96649.75;29395;227;63005;-55
2023/12/24 02:01:18;;;;;;;0.50;0.50;;;;;;;7.08;82.93;96642.47;29394;227;64013;-56
2023/12/24 02:01:50;;;;;;;0.50;0.50;;;;;;;7.11;82.99;96650.00;29394;197;64004;-62
2023/12/24 02:02:21;;;;;;;0.60;0.60;;;;;;;7.10;82.17;96637.59;29395;230;63009;-56
2023/12/24 02:02:54;;;;;;;0.50;0.50;;;;;;;7.11;82.26;96641.91;29395;203;63004;-55
2023/12/24 02:03:25;;;;;;;0.65;0.65;;;;;;;7.10;82.18;96634.91;29395;214;63009;-56
2023/12/24 02:04:00;;;;;;;0.60;0.60;;;;;;;7.07;82.75;96646.25;29395;202;63004;-54
2023/12/24 02:04:32;;;;;;;0.57;0.57;;;;;;;7.09;82.50;96636.00;29395;216;63009;-56
2023/12/24 02:05:04;;;;;;;0.50;0.50;;;;;;;7.20;81.65;96632.16;29394;235;64005;-55
2023/12/24 02:05:35;;;;;;;0.55;0.55;;;;;;;7.18;81.75;96634.34;29395;222;63009;-54
2023/12/24 02:06:08;;;;;;;0.60;0.60;;;;;;;7.15;81.78;96661.06;29395;280;63005;-57
2023/12/24 02:06:40;;;;;;;0.60;0.60;;;;;;;7.23;81.53;96649.69;29394;198;64013;-57
2023/12/24 02:07:15;;;;;;;0.60;0.60;;;;;;;7.23;81.64;96647.00;29395;205;63005;-62
2023/12/24 02:07:48;;;;;;;0.60;0.60;;;;;;;7.22;81.32;96621.91;29395;218;63009;-56
2023/12/24 02:08:21;;;;;;;0.60;0.60;;;;;;;7.22;81.64;96638.09;29395;261;63005;-55
2023/12/24 02:08:53;;;;;;;0.50;0.50;;;;;;;7.23;81.06;96636.22;29395;222;63009;-55
2023/12/24 02:09:25;;;;;;;0.60;0.60;;;;;;;7.18;81.44;96634.34;29395;216;63004;-55
2023/12/24 02:09:58;;;;;;;0.55;0.55;;;;;;;7.13;81.72;96631.66;29395;239;63009;-56
2023/12/24 02:10:30;;;;;;;0.60;0.60;;;;;;;7.09;82.19;96645.97;29395;218;63004;-56
2023/12/24 02:11:01;;;;;;;0.60;0.60;;;;;;;7.06;82.26;96650.03;29395;202;63009;-66
2023/12/24 02:11:33;;;;;;;0.60;0.60;;;;;;;7.08;82.14;96645.16;29395;233;63004;-58
2023/12/24 02:12:05;;;;;;;0.50;0.50;;;;;;;7.10;82.05;96640.31;29394;243;64014;-55
2023/12/24 02:12:39;;;;;;;0.50;0.50;;;;;;;7.07;81.96;96643.56;29395;243;63005;-56
2023/12/24 02:13:12;;;;;;;0.60;0.60;;;;;;;7.06;82.11;96641.94;29395;199;63009;-54
2023/12/24 02:13:44;;;;;;;0.60;0.60;;;;;;;7.04;82.49;96644.09;29395;266;63005;-54
2023/12/24 02:14:16;;;;;;;0.52;0.52;;;;;;;7.05;82.29;96640.31;29395;218;63009;-55
2023/12/24 02:14:47;;;;;;;0.50;0.50;;;;;;;7.05;82.20;96624.94;29395;210;63009;-54
2023/12/24 02:15:18;;;;;;;0.60;0.60;;;;;;;7.04;82.30;96622.53;29395;222;63009;-56
2023/12/24 02:15:56;;;;;;;0.60;0.60;;;;;;;7.00;82.57;96624.97;29395;222;63005;-55
2023/12/24 02:16:33;;;;;;;0.50;0.50;;;;;;;7.00;82.49;96648.44;29395;227;63009;-55
2023/12/24 02:17:06;;;;;;;0.50;0.50;;;;;;;7.08;82.04;96628.97;29394;297;64009;-61
2023/12/24 02:17:39;;;;;;;0.50;0.50;;;;;;;7.10;81.92;96631.41;29395;202;63009;-55
2023/12/24 02:18:10;;;;;;;0.50;0.50;;;;;;;7.14;82.16;96648.66;29395;206;63004;-56
2023/12/24 02:18:42;;;;;;;0.50;0.50;;;;;;;7.11;81.72;96623.03;29395;202;63009;-61
2023/12/24 02:19:21;;;;;;;0.55;0.55;;;;;;;7.12;81.79;96635.44;29395;241;63004;-56
2023/12/24 02:19:53;;;;;;;0.60;0.60;;;;;;;7.10;81.88;96621.41;29395;265;63009;-55
2023/12/24 02:20:25;;;;;;;0.50;0.50;;;;;;;7.10;82.04;96632.22;29395;240;63005;-55
2023/12/24 02:21:04;;;;;;;0.60;0.60;;;;;;;7.14;81.82;96617.09;29395;213;63009;-60
2023/12/24 02:21:35;;;;;;;0.50;0.50;;;;;;;7.20;81.30;96637.56;29395;279;63005;-54
2023/12/24 02:22:08;;;;;;;0.52;0.52;;;;;;;7.20;81.30;96629.47;29394;205;64013;-56
2023/12/24 02:22:39;;;;;;;0.50;0.50;;;;;;;7.20;81.20;96642.97;29395;202;63005;-55
2023/12/24 02:23:10;;;;;;;0.60;0.60;;;;;;;7.24;80.71;96627.03;29395;253;63009;-56
2023/12/24 02:23:41;;;;;;;0.60;0.60;;;;;;;7.21;80.97;96625.69;29395;203;63005;-54
2023/12/24 02:24:14;;;;;;;0.50;0.50;;;;;;;7.16;81.36;96635.69;29395;227;63009;-54
2023/12/24 02:24:46;;;;;;;0.50;0.50;;;;;;;7.11;81.88;96623.03;29395;208;63004;-55
2023/12/24 02:25:18;;;;;;;0.50;0.50;;;;;;;7.11;81.96;96628.44;29395;215;63009;-57
2023/12/24 02:25:51;;;;;;;0.60;0.60;;;;;;;7.12;81.94;96630.03;29395;209;63004;-54
2023/12/24 02:26:39;;;;;;;0.50;0.50;;;;;;;7.13;81.71;96642.44;29395;238;63008;-55
2023/12/24 02:27:31;;;;;;;0.60;0.60;;;;;;;7.13;81.94;96626.25;29394;199;64009;-55
2023/12/24 02:28:27;;;;;;;0.60;0.60;;;;;;;7.04;82.36;96625.22;29395;231;63009;-54
2023/12/24 02:29:10;;;;;;;0.60;0.60;;;;;;;7.13;81.80;96620.88;29395;254;63005;-60
2023/12/24 02:29:44;;;;;;;0.50;0.50;;;;;;;7.11;81.88;96633.81;29395;218;63023;-56
2023/12/24 02:30:23;;;;;;;0.50;0.50;;;;;;;7.11;81.92;96639.22;29395;213;63005;-56
2023/12/24 02:31:02;;;;;;;0.60;0.60;;;;;;;7.18;82.04;96645.13;29395;219;63009;-58
2023/12/24 02:31:39;;;;;;;0.50;0.50;;;;;;;7.18;81.61;96623.53;29395;278;63004;-55
2023/12/24 02:32:17;;;;;;;0.60;0.60;;;;;;;7.13;82.02;96639.75;29395;226;63009;-55
2023/12/24 02:32:56;;;;;;;0.60;0.60;;;;;;;7.10;81.87;96632.22;29394;265;64009;-56
2023/12/24 02:33:33;;;;;;;0.50;0.50;;;;;;;7.09;82.20;96652.19;29394;197;64008;-55
2023/12/24 02:34:07;;;;;;;0.50;0.50;;;;;;;7.12;82.00;96619.25;29395;212;63004;-54
2023/12/24 02:34:39;;;;;;;0.50;0.50;;;;;;;7.11;82.14;96647.31;29395;265;63008;-55
2023/12/24 02:35:12;;;;;;;0.60;0.60;;;;;;;7.13;81.98;96626.25;29395;229;63005;-57
2023/12/24 02:35:46;;;;;;;0.50;0.50;;;;;;;7.16;81.68;96625.72;29395;254;63009;-58
2023/12/24 02:36:18;;;;;;;0.50;0.50;;;;;;;7.18;82.01;96628.12;29395;196;63005;-56
2023/12/24 02:36:51;;;;;;;0.60;0.60;;;;;;;7.16;81.68;96636.50;29395;214;63009;-56